Time;durP1;ratioP1;P1;durP2;ratioP2;P2;SDS_P1;SDS_P2;PMS_P1;PMS_P2;Temp;Humidity;BMP_temperature;BMP_pressure;BME280_temperature;BME280_humidity;BME280_pressure;Samples;Min_cycle;Max_cycle;Signal;HPM_P1;HPM_P2
2022/06/17 00:01:27;;;;;;;0.00;0.00;;;20.50;97.80;;;;;;5048394;28;20116;-74
2022/06/17 00:03:52;;;;;;;0.00;0.00;;;20.50;98.00;;;;;;5055563;28;20060;-74
2022/06/17 00:06:21;;;;;;;0.00;0.00;;;20.50;98.00;;;;;;5056604;28;20569;-73
2022/06/17 00:08:49;;;;;;;0.00;0.00;;;20.50;98.10;;;;;;5062265;28;20012;-75
2022/06/17 00:11:20;;;;;;;0.00;0.00;;;20.50;97.80;;;;;;5066685;28;20483;-74
2022/06/17 00:13:46;;;;;;;0.00;0.00;;;20.50;97.70;;;;;;5063724;28;20340;-74
2022/06/17 00:16:13;;;;;;;0.00;0.00;;;20.40;97.80;;;;;;5067731;28;20092;-74
2022/06/17 00:18:40;;;;;;;0.00;0.00;;;20.40;97.90;;;;;;5066632;28;20276;-76
2022/06/17 00:21:06;;;;;;;0.00;0.00;;;20.40;97.80;;;;;;5046211;28;20100;-74
2022/06/17 00:23:31;;;;;;;0.00;0.00;;;20.40;97.80;;;;;;5040834;28;20039;-74
2022/06/17 00:25:57;;;;;;;0.00;0.00;;;20.40;97.80;;;;;;5058748;28;20245;-74
2022/06/17 00:28:23;;;;;;;0.00;0.00;;;20.40;97.60;;;;;;5064521;28;20070;-74
2022/06/17 00:30:50;;;;;;;0.00;0.00;;;20.40;97.70;;;;;;5041871;28;20035;-74
2022/06/17 00:33:17;;;;;;;0.00;0.00;;;20.40;97.40;;;;;;5059959;28;20021;-74
2022/06/17 00:35:52;;;;;;;0.00;0.00;;;20.40;97.60;;;;;;5061560;28;20024;-74
2022/06/17 00:38:24;;;;;;;0.00;0.00;;;20.40;97.50;;;;;;5063575;28;20347;-74
2022/06/17 00:40:51;;;;;;;0.00;0.00;;;20.40;97.80;;;;;;5040549;28;20033;-74
2022/06/17 00:43:28;;;;;;;0.00;0.00;;;20.40;97.70;;;;;;5060663;28;20029;-74
2022/06/17 00:46:20;;;;;;;0.00;0.00;;;20.30;97.40;;;;;;5066798;28;20024;-74
2022/06/17 00:49:17;;;;;;;0.00;0.00;;;20.40;97.40;;;;;;5057262;28;20033;-74
2022/06/17 00:51:58;;;;;;;0.00;0.00;;;20.40;97.50;;;;;;5065198;28;20040;-74
2022/06/17 00:54:34;;;;;;;0.00;0.00;;;20.30;97.20;;;;;;5060111;28;20025;-74
2022/06/17 00:57:15;;;;;;;0.00;0.00;;;20.30;97.70;;;;;;5046669;28;20032;-77
2022/06/17 00:59:41;;;;;;;0.00;0.00;;;20.30;97.50;;;;;;5058552;28;20053;-74
2022/06/17 01:02:07;;;;;;;0.00;0.00;;;20.30;97.60;;;;;;5047980;28;20028;-75
2022/06/17 01:04:42;;;;;;;0.00;0.00;;;20.20;97.70;;;;;;5042326;28;20028;-73
2022/06/17 01:07:20;;;;;;;0.00;0.00;;;20.20;97.90;;;;;;5061477;28;20089;-74
2022/06/17 01:10:01;;;;;;;0.00;0.00;;;20.20;97.70;;;;;;5059242;28;20021;-73
2022/06/17 01:12:31;;;;;;;0.00;0.00;;;20.20;97.70;;;;;;5049005;28;20021;-74
2022/06/17 01:14:58;;;;;;;0.00;0.00;;;20.20;97.70;;;;;;5062542;28;20035;-74
2022/06/17 01:17:25;;;;;;;0.00;0.00;;;20.20;97.70;;;;;;5064072;28;20028;-74
2022/06/17 01:19:55;;;;;;;0.00;0.00;;;20.20;97.70;;;;;;5064992;28;20100;-73
2022/06/17 01:22:26;;;;;;;0.00;0.00;;;20.20;97.70;;;;;;5062457;28;20556;-74
2022/06/17 01:25:10;;;;;;;0.00;0.00;;;20.20;98.20;;;;;;5064056;28;20021;-74
2022/06/17 01:27:45;;;;;;;0.00;0.00;;;20.20;97.70;;;;;;5043270;28;20029;-74
2022/06/17 01:30:18;;;;;;;0.00;0.00;;;20.20;97.80;;;;;;5062100;28;20025;-74
2022/06/17 01:32:53;;;;;;;0.00;0.00;;;20.10;97.30;;;;;;5058368;28;20035;-73
2022/06/17 01:35:22;;;;;;;0.00;0.00;;;20.20;97.40;;;;;;5064383;28;20047;-74
2022/06/17 01:37:48;;;;;;;0.00;0.00;;;20.10;97.40;;;;;;5064781;28;20319;-74
2022/06/17 01:40:16;;;;;;;0.00;0.00;;;20.10;97.40;;;;;;5062906;28;20025;-74
2022/06/17 01:42:42;;;;;;;0.00;0.00;;;20.10;97.80;;;;;;5060289;28;20319;-73
2022/06/17 01:45:09;;;;;;;0.00;0.00;;;20.10;97.90;;;;;;5069579;28;20035;-73
2022/06/17 01:47:38;;;;;;;0.00;0.00;;;20.10;97.70;;;;;;5063169;28;20017;-74
2022/06/17 01:50:09;;;;;;;0.00;0.00;;;20.00;97.60;;;;;;5060206;28;20258;-74
2022/06/17 01:52:43;;;;;;;0.00;0.00;;;20.10;97.80;;;;;;5046455;28;20029;-74
2022/06/17 01:55:12;;;;;;;0.00;0.00;;;20.00;97.80;;;;;;5070994;28;20509;-73
2022/06/17 01:57:47;;;;;;;0.00;0.00;;;20.00;97.80;;;;;;5051435;28;20202;-74
2022/06/17 02:00:23;;;;;;;0.00;0.00;;;20.00;97.80;;;;;;5069181;28;20053;-73
2022/06/17 02:02:55;;;;;;;0.00;0.00;;;20.00;97.80;;;;;;5068556;28;20029;-74
2022/06/17 02:05:23;;;;;;;0.00;0.00;;;19.90;97.90;;;;;;5057573;28;20017;-74
2022/06/17 02:07:53;;;;;;;0.00;0.00;;;19.90;97.80;;;;;;5049634;28;20067;-75
2022/06/17 02:10:23;;;;;;;0.00;0.00;;;19.90;97.90;;;;;;5068979;28;20071;-74
2022/06/17 02:12:50;;;;;;;0.00;0.00;;;19.90;97.90;;;;;;5068050;28;20096;-74
2022/06/17 02:15:16;;;;;;;0.00;0.00;;;19.90;98.10;;;;;;5065014;28;20335;-73
2022/06/17 02:17:45;;;;;;;0.00;0.00;;;19.90;98.80;;;;;;5066938;28;20036;-73
2022/06/17 02:20:13;;;;;;;0.00;0.00;;;19.90;98.70;;;;;;5045626;28;20086;-74
2022/06/17 02:22:39;;;;;;;0.00;0.00;;;19.90;98.40;;;;;;5067749;28;20071;-73
2022/06/17 02:25:12;;;;;;;0.00;0.00;;;19.90;98.40;;;;;;5064331;28;20216;-73
2022/06/17 02:27:40;;;;;;;0.00;0.00;;;19.90;98.40;;;;;;5068021;28;20036;-73
2022/06/17 02:30:08;;;;;;;0.00;0.00;;;19.90;98.80;;;;;;5067771;28;20020;-74
2022/06/17 02:32:35;;;;;;;0.00;0.00;;;19.90;98.80;;;;;;5069816;28;20024;-73
2022/06/17 02:35:13;;;;;;;0.00;0.00;;;19.90;98.80;;;;;;5043596;28;20021;-73
2022/06/17 02:37:39;;;;;;;0.00;0.00;;;19.80;98.60;;;;;;5062414;28;20027;-73
2022/06/17 02:40:25;;;;;;;0.00;0.00;;;19.90;98.80;;;;;;5046430;28;20048;-74
2022/06/17 02:42:51;;;;;;;0.00;0.00;;;19.80;98.70;;;;;;5065117;28;20012;-74
2022/06/17 02:45:22;;;;;;;0.00;0.00;;;19.80;98.90;;;;;;5040865;28;20035;-73
2022/06/17 02:47:48;;;;;;;0.00;0.00;;;19.80;98.90;;;;;;5048305;28;20079;-75
2022/06/17 02:50:19;;;;;;;0.00;0.00;;;19.70;99.00;;;;;;5066256;28;20067;-73
2022/06/17 02:52:45;;;;;;;0.00;0.00;;;19.70;98.90;;;;;;5069450;28;20067;-73
2022/06/17 02:55:18;;;;;;;0.00;0.00;;;19.80;98.70;;;;;;5062487;28;20029;-74
2022/06/17 02:57:47;;;;;;;0.00;0.00;;;19.80;98.80;;;;;;5068912;28;20066;-73
2022/06/17 03:00:18;;;;;;;0.00;0.00;;;19.80;98.70;;;;;;5062309;28;20239;-74
2022/06/17 03:02:49;;;;;;;0.00;0.00;;;19.70;98.60;;;;;;5081311;28;20366;-72
2022/06/17 03:05:15;;;;;;;0.00;0.00;;;19.70;98.50;;;;;;5083514;28;20028;-74
2022/06/17 03:07:41;;;;;;;0.00;0.00;;;19.70;98.50;;;;;;5080273;28;20066;-74
2022/06/17 03:10:33;;;;;;;0.00;0.00;;;19.70;98.50;;;;;;5066321;28;20016;-74
2022/06/17 03:13:04;;;;;;;0.00;0.00;;;19.70;98.70;;;;;;5082667;28;20047;-74
2022/06/17 03:15:30;;;;;;;0.00;0.00;;;19.70;98.50;;;;;;5087124;28;20271;-74
2022/06/17 03:17:56;;;;;;;0.00;0.00;;;19.70;98.50;;;;;;5085230;28;20031;-74
2022/06/17 03:20:26;;;;;;;0.00;0.00;;;19.70;98.50;;;;;;5079794;28;20021;-75
2022/06/17 03:22:57;;;;;;;0.00;0.00;;;19.70;98.70;;;;;;5092007;28;20028;-73
2022/06/17 03:25:25;;;;;;;0.00;0.00;;;19.70;98.70;;;;;;5081476;28;20204;-73
2022/06/17 03:27:57;;;;;;;0.00;0.00;;;19.70;98.60;;;;;;5095498;28;20024;-74
2022/06/17 03:30:32;;;;;;;0.00;0.00;;;19.70;98.30;;;;;;5084664;28;20066;-74
2022/06/17 03:33:03;;;;;;;0.00;0.00;;;19.70;98.10;;;;;;5087825;28;20098;-73
2022/06/17 03:35:31;;;;;;;0.00;0.00;;;19.70;97.80;;;;;;5084239;28;20031;-73
2022/06/17 03:38:02;;;;;;;0.00;0.00;;;19.70;97.60;;;;;;5082486;28;20035;-73
2022/06/17 03:40:33;;;;;;;0.00;0.00;;;19.70;97.40;;;;;;5082978;28;20322;-73
2022/06/17 03:43:11;;;;;;;0.00;0.00;;;19.70;97.30;;;;;;5085118;28;20024;-73
2022/06/17 03:45:48;;;;;;;0.00;0.00;;;19.70;97.20;;;;;;5083784;28;20025;-73
2022/06/17 03:48:40;;;;;;;0.00;0.00;;;19.70;97.00;;;;;;5081743;28;20237;-74
2022/06/17 03:51:10;;;;;;;0.00;0.00;;;19.70;96.70;;;;;;5042584;28;20141;-75
2022/06/17 03:53:37;;;;;;;0.00;0.00;;;19.60;96.80;;;;;;5086165;28;20043;-74
2022/06/17 03:56:13;;;;;;;0.00;0.00;;;19.60;97.00;;;;;;5081083;28;20020;-74
2022/06/17 03:58:40;;;;;;;0.00;0.00;;;19.60;97.10;;;;;;5083167;28;20319;-74
2022/06/17 04:01:32;;;;;;;0.00;0.00;;;19.60;97.30;;;;;;5088692;28;20067;-76
2022/06/17 04:04:06;;;;;;;0.00;0.00;;;19.60;97.40;;;;;;5083549;28;20119;-74
2022/06/17 04:06:38;;;;;;;0.00;0.00;;;19.60;97.40;;;;;;5084108;28;20031;-74
2022/06/17 04:09:17;;;;;;;0.00;0.00;;;19.60;97.30;;;;;;5083829;28;20032;-74
2022/06/17 04:11:46;;;;;;;0.00;0.00;;;19.50;97.20;;;;;;5081767;28;20024;-74
2022/06/17 04:14:28;;;;;;;0.00;0.00;;;19.50;97.60;;;;;;5083341;28;20027;-74
2022/06/17 04:17:10;;;;;;;0.00;0.00;;;19.50;97.50;;;;;;5082325;28;20039;-74
2022/06/17 04:19:35;;;;;;;0.00;0.00;;;19.50;97.50;;;;;;5094456;28;20016;-72
2022/06/17 04:22:27;;;;;;;0.00;0.00;;;19.50;97.50;;;;;;5080930;28;20082;-74
2022/06/17 04:24:59;;;;;;;0.00;0.00;;;19.40;97.50;;;;;;5084271;28;20138;-75
2022/06/17 04:27:56;;;;;;;0.00;0.00;;;19.40;97.40;;;;;;5085578;28;20289;-74
2022/06/17 04:30:17;;;;;;;0.00;0.00;;;19.40;97.40;;;;;;5081279;28;20032;-75
2022/06/17 04:32:43;;;;;;;0.00;0.00;;;19.40;97.20;;;;;;5088302;28;20032;-74
2022/06/17 04:35:12;;;;;;;0.00;0.00;;;19.40;97.20;;;;;;5087121;28;20095;-75
2022/06/17 04:37:39;;;;;;;0.00;0.00;;;19.40;97.30;;;;;;5084016;28;20475;-74
2022/06/17 04:40:12;;;;;;;0.00;0.00;;;19.40;97.40;;;;;;5086128;28;20028;-74
2022/06/17 04:42:42;;;;;;;0.00;0.00;;;19.40;97.20;;;;;;5086695;28;20112;-73
2022/06/17 04:45:28;;;;;;;0.00;0.00;;;19.40;97.30;;;;;;5089583;28;20028;-76
2022/06/17 04:47:55;;;;;;;0.00;0.00;;;19.50;97.10;;;;;;5082957;28;20017;-74
2022/06/17 04:50:24;;;;;;;0.00;0.00;;;19.50;97.10;;;;;;5079848;28;20016;-74
2022/06/17 04:52:51;;;;;;;0.00;0.00;;;19.50;97.10;;;;;;5083411;28;20028;-74
2022/06/17 04:55:25;;;;;;;0.00;0.00;;;19.50;97.00;;;;;;5088932;28;20040;-74
2022/06/17 04:57:51;;;;;;;0.00;0.00;;;19.60;96.80;;;;;;5086127;28;20242;-75
2022/06/17 05:00:23;;;;;;;0.00;0.00;;;19.60;96.70;;;;;;5070436;28;20121;-74
2022/06/17 05:02:49;;;;;;;0.00;0.00;;;19.70;96.40;;;;;;5062861;28;20028;-76
2022/06/17 05:05:37;;;;;;;0.00;0.00;;;19.70;96.30;;;;;;5065040;28;20024;-74
2022/06/17 05:08:25;;;;;;;0.00;0.00;;;19.70;96.40;;;;;;5061762;28;20025;-73
2022/06/17 05:10:59;;;;;;;0.00;0.00;;;19.80;96.30;;;;;;5060203;28;20273;-74
2022/06/17 05:13:40;;;;;;;0.00;0.00;;;19.80;96.40;;;;;;5065657;28;20017;-73
2022/06/17 05:16:12;;;;;;;0.00;0.00;;;19.90;96.60;;;;;;5066795;28;20028;-74
2022/06/17 05:18:38;;;;;;;0.00;0.00;;;19.90;96.60;;;;;;5071517;28;20032;-72
2022/06/17 05:21:04;;;;;;;0.00;0.00;;;20.00;96.50;;;;;;5061143;28;20025;-74
2022/06/17 05:23:29;;;;;;;0.00;0.00;;;20.00;96.70;;;;;;5066069;28;20550;-74
2022/06/17 05:25:55;;;;;;;0.00;0.00;;;20.00;96.70;;;;;;5061252;28;20088;-74
2022/06/17 05:28:21;;;;;;;0.00;0.00;;;20.10;96.90;;;;;;5066410;28;20357;-74
2022/06/17 05:30:53;;;;;;;0.00;0.00;;;20.20;96.90;;;;;;5074188;28;20021;-74
2022/06/17 05:33:20;;;;;;;0.00;0.00;;;20.20;96.30;;;;;;5045855;28;20135;-75
2022/06/17 05:35:47;;;;;;;0.00;0.00;;;20.20;95.90;;;;;;5065224;28;20320;-75
2022/06/17 05:38:13;;;;;;;0.00;0.00;;;20.30;95.80;;;;;;5065628;28;20312;-73
2022/06/17 05:40:41;;;;;;;0.00;0.00;;;20.30;95.70;;;;;;5067266;28;20054;-74
2022/06/17 05:43:07;;;;;;;;;;;20.40;95.60;;;;;;5045463;28;20325;-74
2022/06/17 05:45:33;;;;;;;0.00;0.00;;;20.40;96.10;;;;;;5067015;28;20229;-73
2022/06/17 05:47:59;;;;;;;0.00;0.00;;;20.40;96.30;;;;;;5046055;28;20036;-74
2022/06/17 05:50:26;;;;;;;0.00;0.00;;;20.50;96.30;;;;;;5068807;28;20189;-74
2022/06/17 05:53:05;;;;;;;0.00;0.00;;;20.50;96.10;;;;;;5066787;28;20051;-74
2022/06/17 05:55:33;;;;;;;0.00;0.00;;;20.60;95.90;;;;;;5058911;28;20056;-74
2022/06/17 05:57:59;;;;;;;0.00;0.00;;;20.60;96.10;;;;;;5067332;28;20039;-75
2022/06/17 06:00:26;;;;;;;0.00;0.00;;;20.60;95.60;;;;;;5058307;28;20080;-73
2022/06/17 06:02:56;;;;;;;0.00;0.00;;;20.70;95.90;;;;;;5045735;28;20104;-74
2022/06/17 06:05:24;;;;;;;0.00;0.00;;;20.70;96.00;;;;;;5038525;28;20379;-72
2022/06/17 06:07:50;;;;;;;;;;;20.80;95.30;;;;;;5062840;28;20021;-75
2022/06/17 06:10:16;;;;;;;0.00;0.00;;;20.90;95.50;;;;;;5063547;28;19924;-73
2022/06/17 06:13:05;;;;;;;0.00;0.00;;;21.20;95.90;;;;;;5060163;28;20025;-73
2022/06/17 06:15:39;;;;;;;0.00;0.00;;;21.60;96.00;;;;;;5066908;28;20088;-74
2022/06/17 06:18:07;;;;;;;0.00;0.00;;;22.20;95.00;;;;;;5046459;28;20360;-74
2022/06/17 06:20:32;;;;;;;0.00;0.00;;;22.70;93.30;;;;;;5060181;28;20032;-73
2022/06/17 06:22:58;;;;;;;0.00;0.00;;;23.20;93.50;;;;;;5065973;28;20041;-76
2022/06/17 06:25:24;;;;;;;0.00;0.00;;;23.80;93.30;;;;;;5064495;28;20017;-75
2022/06/17 06:27:50;;;;;;;0.00;0.00;;;24.40;92.50;;;;;;5050747;28;20200;-74
2022/06/17 06:30:25;;;;;;;0.00;0.00;;;24.90;91.90;;;;;;5068336;28;20016;-74
2022/06/17 06:32:56;;;;;;;0.00;0.00;;;25.40;91.40;;;;;;5061589;28;20028;-75
2022/06/17 06:35:24;;;;;;;0.00;0.00;;;25.90;90.70;;;;;;5071646;28;20023;-74
2022/06/17 06:37:51;;;;;;;0.00;0.00;;;26.30;89.30;;;;;;5072080;28;20055;-75
2022/06/17 06:40:17;;;;;;;0.00;0.00;;;26.60;85.80;;;;;;5046450;28;20043;-74
2022/06/17 06:42:45;;;;;;;0.00;0.00;;;26.80;84.80;;;;;;5049240;28;20032;-74
2022/06/17 06:45:22;;;;;;;0.00;0.00;;;27.00;84.70;;;;;;5068837;28;20326;-76
2022/06/17 06:47:49;;;;;;;0.00;0.00;;;27.40;83.60;;;;;;5053592;28;20631;-74
2022/06/17 06:50:17;;;;;;;0.00;0.00;;;27.70;83.90;;;;;;5055990;28;20560;-72
2022/06/17 06:52:43;;;;;;;0.00;0.00;;;28.10;83.70;;;;;;5068000;28;20029;-74
2022/06/17 06:55:10;;;;;;;0.00;0.00;;;28.40;81.40;;;;;;5064559;28;20051;-74
2022/06/17 06:57:43;;;;;;;0.00;0.00;;;28.80;79.80;;;;;;5071604;28;20035;-74
2022/06/17 07:00:12;;;;;;;0.00;0.00;;;29.20;79.20;;;;;;5064142;28;20415;-74
2022/06/17 07:02:38;;;;;;;0.00;0.00;;;29.60;78.70;;;;;;5067535;28;20040;-76
2022/06/17 07:05:04;;;;;;;0.00;0.00;;;29.50;76.00;;;;;;5052325;28;20208;-74
2022/06/17 07:07:30;;;;;;;0.00;0.00;;;29.80;76.90;;;;;;5066325;28;20739;-74
2022/06/17 07:09:55;;;;;;;0.00;0.00;;;29.90;72.80;;;;;;5048695;28;20028;-75
2022/06/17 07:12:21;;;;;;;0.00;0.00;;;29.70;73.70;;;;;;5072399;28;20039;-75
2022/06/17 07:14:47;;;;;;;0.00;0.00;;;29.40;73.70;;;;;;5066321;28;20020;-74
2022/06/17 07:17:14;;;;;;;0.00;0.00;;;28.80;71.50;;;;;;5065587;28;20196;-74
2022/06/17 07:19:40;;;;;;;0.00;0.00;;;28.00;73.20;;;;;;5066552;28;20047;-75
2022/06/17 07:22:05;;;;;;;0.00;0.00;;;27.50;75.20;;;;;;5067615;28;20040;-75
2022/06/17 07:24:31;;;;;;;0.00;0.00;;;27.10;76.00;;;;;;5068006;28;20032;-73
2022/06/17 07:26:57;;;;;;;0.00;0.00;;;26.80;75.20;;;;;;5069677;28;20013;-75
2022/06/17 07:29:22;;;;;;;0.00;0.00;;;26.40;76.30;;;;;;5050318;28;20184;-78
2022/06/17 07:31:48;;;;;;;0.00;0.00;;;26.10;76.30;;;;;;5048948;28;20029;-78
2022/06/17 07:34:14;;;;;;;0.00;0.00;;;25.80;78.50;;;;;;5065570;28;20024;-76
2022/06/17 07:42:08;;;;;;;0.00;0.00;;;25.20;80.90;;;;;;5052456;28;20031;-75
2022/06/17 07:44:35;;;;;;;0.00;0.00;;;25.10;82.10;;;;;;5062817;28;20036;-72
2022/06/17 07:47:01;;;;;;;0.00;0.00;;;25.10;83.00;;;;;;5046195;28;20032;-74
2022/06/17 07:49:27;;;;;;;0.00;0.00;;;25.10;80.80;;;;;;5047598;28;20036;-74
2022/06/17 07:51:53;;;;;;;0.00;0.00;;;25.00;82.40;;;;;;5067466;28;20051;-74
2022/06/17 07:54:19;;;;;;;0.00;0.00;;;25.10;83.20;;;;;;5057551;28;20028;-74
2022/06/17 07:56:44;;;;;;;0.00;0.00;;;25.30;83.70;;;;;;5063848;28;20019;-76
2022/06/17 07:59:11;;;;;;;0.00;0.00;;;25.60;81.90;;;;;;5051566;28;20087;-73
2022/06/17 08:01:37;;;;;;;0.00;0.00;;;26.00;82.30;;;;;;5066575;28;20037;-73
2022/06/17 08:04:03;;;;;;;0.00;0.00;;;26.30;81.40;;;;;;5068350;28;20035;-74
2022/06/17 08:06:29;;;;;;;0.00;0.00;;;26.90;79.10;;;;;;5067883;28;20033;-75
2022/06/17 08:08:55;;;;;;;0.00;0.00;;;27.20;80.90;;;;;;5045694;28;20200;-72
2022/06/17 08:11:21;;;;;;;0.00;0.00;;;27.80;77.80;;;;;;5050450;28;20108;-75
2022/06/17 08:13:47;;;;;;;0.00;0.00;;;28.70;76.80;;;;;;5053233;28;20099;-74
2022/06/17 08:16:13;;;;;;;0.00;0.00;;;29.10;75.20;;;;;;5068058;28;20312;-73
2022/06/17 08:18:40;;;;;;;0.00;0.00;;;29.30;74.50;;;;;;5044421;28;20013;-74
2022/06/17 08:21:06;;;;;;;0.00;0.00;;;29.50;74.00;;;;;;5042731;28;20032;-74
2022/06/17 08:23:32;;;;;;;0.00;0.00;;;30.20;73.80;;;;;;5063816;28;20114;-75
2022/06/17 08:25:58;;;;;;;0.00;0.00;;;31.10;72.50;;;;;;5050878;28;20020;-75
2022/06/17 08:28:24;;;;;;;0.00;0.00;;;32.00;69.40;;;;;;5062774;28;20094;-75
2022/06/17 08:30:53;;;;;;;0.00;0.00;;;32.90;68.80;;;;;;5056025;28;20055;-75
2022/06/17 08:33:29;;;;;;;0.00;0.00;;;33.10;65.00;;;;;;5064008;28;20032;-76
2022/06/17 08:35:59;;;;;;;0.00;0.00;;;32.60;63.70;;;;;;5050130;28;20054;-75
2022/06/17 08:38:29;;;;;;;0.00;0.00;;;31.70;65.80;;;;;;5062053;28;20035;-75
2022/06/17 08:40:59;;;;;;;0.00;0.00;;;31.70;64.90;;;;;;5066182;28;20016;-75
2022/06/17 08:43:39;;;;;;;0.00;0.00;;;31.80;66.50;;;;;;5046516;28;20025;-76
2022/06/17 08:46:37;;;;;;;0.00;0.00;;;31.70;63.50;;;;;;5072558;28;20023;-74
2022/06/17 08:49:02;;;;;;;0.00;0.00;;;31.60;64.80;;;;;;5045001;28;20028;-74
2022/06/17 08:51:50;;;;;;;0.00;0.00;;;31.90;65.50;;;;;;5067712;28;20264;-76
2022/06/17 08:54:18;;;;;;;0.00;0.00;;;32.10;64.50;;;;;;5060465;28;20167;-75
2022/06/17 08:57:14;;;;;;;0.00;0.00;;;32.50;64.30;;;;;;5063461;28;20291;-75
2022/06/17 08:59:54;;;;;;;0.00;0.00;;;32.30;60.60;;;;;;5057302;28;20290;-75
2022/06/17 09:02:56;;;;;;;0.00;0.00;;;32.20;63.40;;;;;;5084141;28;20092;-75
2022/06/17 09:05:38;;;;;;;0.00;0.00;;;32.90;64.20;;;;;;5079872;28;20055;-75
2022/06/17 09:08:25;;;;;;;0.00;0.00;;;33.10;62.60;;;;;;5091602;28;20047;-74
2022/06/17 09:11:15;;;;;;;0.00;0.00;;;33.30;60.60;;;;;;5079543;28;20048;-74
2022/06/17 09:13:50;;;;;;;0.00;0.00;;;34.10;59.30;;;;;;5082213;28;20066;-74
2022/06/17 09:16:33;;;;;;;0.00;0.00;;;34.40;59.10;;;;;;5086521;28;20031;-77
2022/06/17 09:19:02;;;;;;;0.00;0.00;;;35.10;55.10;;;;;;5080548;28;20112;-73
2022/06/17 09:21:45;;;;;;;0.00;0.00;;;36.00;54.40;;;;;;5085481;28;20355;-73
2022/06/17 09:24:16;;;;;;;0.00;0.00;;;35.80;53.40;;;;;;5093688;28;20040;-74
2022/06/17 09:26:52;;;;;;;0.00;0.00;;;35.60;50.90;;;;;;5086335;28;20079;-74
2022/06/17 09:29:27;;;;;;;0.00;0.00;;;35.40;53.30;;;;;;5085852;28;20047;-75
2022/06/17 09:32:02;;;;;;;0.00;0.00;;;36.00;55.30;;;;;;5083861;28;20254;-75
2022/06/17 09:34:51;;;;;;;0.00;0.00;;;36.10;52.90;;;;;;5083501;28;20043;-75
2022/06/17 09:37:24;;;;;;;0.00;0.00;;;36.60;51.20;;;;;;5078312;28;20009;-77
2022/06/17 09:40:01;;;;;;;0.00;0.00;;;36.40;53.20;;;;;;5088727;28;20024;-75
2022/06/17 09:42:37;;;;;;;0.00;0.00;;;36.30;51.80;;;;;;5079435;28;20028;-74
2022/06/17 09:45:25;;;;;;;0.00;0.00;;;36.30;52.00;;;;;;5087130;28;20024;-75
2022/06/17 09:48:08;;;;;;;0.00;0.00;;;35.90;50.90;;;;;;5083140;28;20013;-74
2022/06/17 09:50:54;;;;;;;0.00;0.00;;;35.40;54.00;;;;;;5081526;28;20028;-74
2022/06/17 09:53:39;;;;;;;0.00;0.00;;;36.20;53.90;;;;;;5086409;28;20031;-73
2022/06/17 09:56:11;;;;;;;0.00;0.00;;;36.80;50.30;;;;;;5090691;28;20032;-75
2022/06/17 09:58:46;;;;;;;0.00;0.00;;;37.10;49.80;;;;;;5088855;28;20189;-74
2022/06/17 10:01:12;;;;;;;0.00;0.00;;;36.60;50.50;;;;;;5067235;28;20209;-75
2022/06/17 10:03:39;;;;;;;0.00;0.00;;;36.10;46.90;;;;;;5071385;28;20052;-79
2022/06/17 10:06:05;;;;;;;;;;;35.80;50.70;;;;;;5068088;28;20028;-74
2022/06/17 10:09:05;;;;;;;0.00;0.00;;;35.90;50.10;;;;;;5062775;28;20088;-74
2022/06/17 10:12:01;;;;;;;0.00;0.00;;;36.50;48.00;;;;;;5008452;28;20038;-74
2022/06/17 10:14:49;;;;;;;0.00;0.00;;;36.80;46.90;;;;;;5071222;28;20103;-74
2022/06/17 10:20:31;;;;;;;0.00;0.00;;;38.50;47.00;;;;;;5063571;28;20024;-74
2022/06/17 10:23:11;;;;;;;0.00;0.00;;;38.70;45.80;;;;;;5045196;28;20029;-73
2022/06/17 10:25:55;;;;;;;0.00;0.00;;;37.90;47.10;;;;;;5064616;28;20044;-75
2022/06/17 10:28:46;;;;;;;0.00;0.00;;;37.90;47.20;;;;;;5065192;28;20032;-75
2022/06/17 10:31:31;;;;;;;0.00;0.00;;;37.50;47.00;;;;;;5067070;28;20145;-74
2022/06/17 10:34:01;;;;;;;0.00;0.00;;;36.70;45.50;;;;;;5048825;28;20331;-75
2022/06/17 10:36:28;;;;;;;0.00;0.00;;;36.50;48.60;;;;;;5063904;28;20048;-75
2022/06/17 10:38:54;;;;;;;0.00;0.00;;;37.60;47.80;;;;;;5062284;28;20055;-75
2022/06/17 10:41:19;;;;;;;0.00;0.00;;;38.60;45.30;;;;;;5046167;28;20024;-74
2022/06/17 10:43:49;;;;;;;0.00;0.00;;;38.30;43.20;;;;;;5062240;28;20032;-75
2022/06/17 10:46:22;;;;;;;0.00;0.00;;;37.30;44.00;;;;;;5051630;28;20028;-75
2022/06/17 10:49:25;;;;;;;0.00;0.00;;;36.40;44.70;;;;;;5051652;28;20039;-75
2022/06/17 10:51:53;;;;;;;0.00;0.00;;;36.30;45.80;;;;;;5051381;28;20051;-75
2022/06/17 10:54:36;;;;;;;0.00;0.00;;;36.40;44.30;;;;;;5064887;28;20108;-76
2022/06/17 10:57:06;;;;;;;0.00;0.00;;;36.80;46.40;;;;;;5057394;28;20315;-75
2022/06/17 10:59:36;;;;;;;0.00;0.00;;;37.60;47.40;;;;;;5061428;28;20369;-75
2022/06/17 11:02:03;;;;;;;0.00;0.00;;;37.40;42.70;;;;;;5065450;28;20131;-75
2022/06/17 11:04:30;;;;;;;;;;;36.40;43.10;;;;;;5043753;28;20032;-75
2022/06/17 11:07:15;;;;;;;0.00;0.00;;;35.40;43.60;;;;;;5059278;28;19968;-75
2022/06/17 11:09:51;;;;;;;0.00;0.00;;;34.90;46.10;;;;;;5070807;28;20080;-75
2022/06/17 11:12:21;;;;;;;0.00;0.00;;;35.80;47.10;;;;;;5065732;28;20024;-76
2022/06/17 11:14:47;;;;;;;0.00;0.00;;;36.30;44.60;;;;;;5048502;28;20028;-75
2022/06/17 11:17:12;;;;;;;0.00;0.00;;;36.50;45.30;;;;;;5052925;28;20024;-75
2022/06/17 11:19:41;;;;;;;0.00;0.00;;;36.30;43.10;;;;;;5051619;28;20321;-78
2022/06/17 11:22:18;;;;;;;0.00;0.00;;;35.70;44.00;;;;;;5046867;28;20148;-76
2022/06/17 11:24:52;;;;;;;0.00;0.00;;;34.60;45.60;;;;;;5050121;28;20048;-77
2022/06/17 11:27:31;;;;;;;0.00;0.00;;;33.60;45.30;;;;;;5065503;28;20028;-76
2022/06/17 11:30:17;;;;;;;0.00;0.00;;;33.50;47.10;;;;;;5066481;28;20020;-76
2022/06/17 11:32:45;;;;;;;0.00;0.00;;;33.80;46.90;;;;;;5063951;28;20013;-76
2022/06/17 11:35:21;;;;;;;0.00;0.00;;;33.80;45.40;;;;;;5062723;28;20209;-76
2022/06/17 11:37:49;;;;;;;0.00;0.00;;;33.70;44.70;;;;;;5040300;28;20193;-76
2022/06/17 11:40:23;;;;;;;0.00;0.00;;;33.20;45.80;;;;;;5045663;28;20048;-76
2022/06/17 11:42:57;;;;;;;0.00;0.00;;;32.60;45.50;;;;;;5043860;28;20164;-78
2022/06/17 11:45:32;;;;;;;0.00;0.00;;;32.00;46.80;;;;;;5065879;28;20037;-76
2022/06/17 11:48:10;;;;;;;0.00;0.00;;;31.50;47.30;;;;;;5070260;28;20095;-76
2022/06/17 11:50:40;;;;;;;0.00;0.00;;;31.00;47.90;;;;;;5060760;28;20094;-76
2022/06/17 11:53:08;;;;;;;0.00;0.00;;;30.60;50.00;;;;;;5053228;28;20028;-73
2022/06/17 11:55:43;;;;;;;0.00;0.00;;;30.00;50.50;;;;;;5067371;28;20149;-76
2022/06/17 11:58:11;;;;;;;0.00;0.00;;;29.90;51.20;;;;;;5049264;28;20160;-75
2022/06/17 12:00:48;;;;;;;0.00;0.00;;;29.60;50.20;;;;;;5064644;28;20104;-75
2022/06/17 12:03:20;;;;;;;0.00;0.00;;;29.30;51.80;;;;;;5062112;28;20235;-75
2022/06/17 12:05:59;;;;;;;0.00;0.00;;;29.10;52.70;;;;;;5052553;28;20197;-73
2022/06/17 12:08:45;;;;;;;0.00;0.00;;;28.90;51.50;;;;;;5067605;28;20040;-73
2022/06/17 12:11:16;;;;;;;0.00;0.00;;;29.00;53.40;;;;;;5069544;28;20036;-74
2022/06/17 12:13:49;;;;;;;0.00;0.00;;;28.70;52.70;;;;;;5066551;28;20013;-74
2022/06/17 12:16:24;;;;;;;0.00;0.00;;;28.50;53.20;;;;;;5070763;28;20020;-75
2022/06/17 12:18:54;;;;;;;0.00;0.00;;;28.40;53.50;;;;;;5065483;28;20687;-74
2022/06/17 12:21:33;;;;;;;0.00;0.00;;;28.50;53.00;;;;;;5063345;28;20032;-75
2022/06/17 12:24:32;;;;;;;0.00;0.00;;;28.50;53.30;;;;;;5044203;28;20032;-78
2022/06/17 12:27:09;;;;;;;0.00;0.00;;;28.30;52.50;;;;;;5066164;28;20148;-78
2022/06/17 12:29:59;;;;;;;0.00;0.00;;;28.20;54.70;;;;;;5063402;28;20181;-74
2022/06/17 12:32:30;;;;;;;0.00;0.00;;;28.20;53.20;;;;;;5065618;28;20037;-74
2022/06/17 12:34:56;;;;;;;0.00;0.00;;;28.20;53.90;;;;;;5068032;28;20418;-74
2022/06/17 12:37:47;;;;;;;0.00;0.00;;;28.10;54.50;;;;;;5065417;28;20029;-75
2022/06/17 12:40:31;;;;;;;0.00;0.00;;;28.10;54.80;;;;;;5040724;28;20095;-75
2022/06/17 12:43:08;;;;;;;0.00;0.00;;;28.10;53.80;;;;;;5064611;28;20033;-75
2022/06/17 12:45:34;;;;;;;0.00;0.00;;;28.00;53.50;;;;;;5062404;28;20055;-75
2022/06/17 12:48:14;;;;;;;0.00;0.00;;;27.90;53.00;;;;;;5063171;28;20080;-74
2022/06/17 12:54:02;;;;;;;0.00;0.00;;;27.70;53.40;;;;;;5064948;28;20078;-75
2022/06/17 12:56:49;;;;;;;0.00;0.00;;;27.60;53.10;;;;;;5046362;28;20024;-75
2022/06/17 12:59:31;;;;;;;;;;;27.50;53.70;;;;;;5065043;28;20279;-75
2022/06/17 13:02:07;;;;;;;0.00;0.00;;;27.50;54.10;;;;;;5065744;28;19913;-74
2022/06/17 13:05:00;;;;;;;0.00;0.00;;;27.50;54.70;;;;;;5050816;28;20021;-74
2022/06/17 13:07:35;;;;;;;0.00;0.00;;;27.50;53.10;;;;;;5048628;28;20091;-74
2022/06/17 13:10:40;;;;;;;0.00;0.00;;;27.60;53.20;;;;;;5063447;28;20025;-75
2022/06/17 13:13:42;;;;;;;0.00;0.00;;;27.50;52.90;;;;;;5050423;28;20104;-75
2022/06/17 13:16:19;;;;;;;0.00;0.00;;;27.40;52.70;;;;;;5028001;28;20028;-75
2022/06/17 13:19:05;;;;;;;0.00;0.00;;;27.30;54.60;;;;;;5065418;28;20223;-75
2022/06/17 13:21:56;;;;;;;0.00;0.00;;;27.30;53.30;;;;;;5063899;28;20039;-74
2022/06/17 13:24:37;;;;;;;0.00;0.00;;;27.30;55.10;;;;;;5063119;28;20028;-79
2022/06/17 13:27:21;;;;;;;0.00;0.00;;;27.30;53.40;;;;;;5043878;28;20149;-75
2022/06/17 13:29:47;;;;;;;0.00;0.00;;;27.30;54.10;;;;;;5070051;28;20020;-74